sensor_id;sensor_type;location;lat;lon;timestamp;temperature;humidity
43049;DHT22;28673;44.412;11.918;2023-12-29T00:01:55;9.70;99.90
43049;DHT22;28673;44.412;11.918;2023-12-29T00:04:21;9.70;99.90
43049;DHT22;28673;44.412;11.918;2023-12-29T00:06:46;9.70;99.90
43049;DHT22;28673;44.412;11.918;2023-12-29T00:09:14;9.70;99.90
43049;DHT22;28673;44.412;11.918;2023-12-29T00:11:40;9.70;99.90
43049;DHT22;28673;44.412;11.918;2023-12-29T00:14:05;9.70;99.90
43049;DHT22;28673;44.412;11.918;2023-12-29T00:16:31;9.60;99.90
43049;DHT22;28673;44.412;11.918;2023-12-29T00:18:57;9.60;99.90
43049;DHT22;28673;44.412;11.918;2023-12-29T00:21:23;9.60;99.90
43049;DHT22;28673;44.412;11.918;2023-12-29T00:23:48;9.60;99.90
43049;DHT22;28673;44.412;11.918;2023-12-29T00:26:18;9.60;99.90
43049;DHT22;28673;44.412;11.918;2023-12-29T00:28:48;9.60;99.90
43049;DHT22;28673;44.412;11.918;2023-12-29T00:31:17;9.60;99.90
43049;DHT22;28673;44.412;11.918;2023-12-29T00:33:43;9.60;99.90
43049;DHT22;28673;44.412;11.918;2023-12-29T00:36:15;9.60;99.90
43049;DHT22;28673;44.412;11.918;2023-12-29T00:38:41;9.60;99.90
43049;DHT22;28673;44.412;11.918;2023-12-29T00:41:07;9.60;99.90
43049;DHT22;28673;44.412;11.918;2023-12-29T00:43:33;9.60;99.90
43049;DHT22;28673;44.412;11.918;2023-12-29T00:46:04;9.60;99.90
43049;DHT22;28673;44.412;11.918;2023-12-29T00:48:31;9.60;99.90
43049;DHT22;28673;44.412;11.918;2023-12-29T00:50:57;9.60;99.90
43049;DHT22;28673;44.412;11.918;2023-12-29T00:53:23;9.60;99.90
43049;DHT22;28673;44.412;11.918;2023-12-29T00:55:49;9.60;99.90
43049;DHT22;28673;44.412;11.918;2023-12-29T00:58:15;9.60;99.90
43049;DHT22;28673;44.412;11.918;2023-12-29T01:00:40;9.60;99.90
43049;DHT22;28673;44.412;11.918;2023-12-29T01:03:06;9.60;99.90
43049;DHT22;28673;44.412;11.918;2023-12-29T01:05:32;9.60;99.90
43049;DHT22;28673;44.412;11.918;2023-12-29T01:07:58;9.60;99.90
43049;DHT22;28673;44.412;11.918;2023-12-29T01:10:23;9.50;99.90
43049;DHT22;28673;44.412;11.918;2023-12-29T01:12:49;9.50;99.90
43049;DHT22;28673;44.412;11.918;2023-12-29T01:15:15;9.40;99.90
43049;DHT22;28673;44.412;11.918;2023-12-29T01:17:41;9.40;99.90
43049;DHT22;28673;44.412;11.918;2023-12-29T01:20:07;9.40;99.90
43049;DHT22;28673;44.412;11.918;2023-12-29T01:22:33;9.40;99.90
43049;DHT22;28673;44.412;11.918;2023-12-29T01:25:00;9.40;99.90
43049;DHT22;28673;44.412;11.918;2023-12-29T01:27:26;9.40;99.90
43049;DHT22;28673;44.412;11.918;2023-12-29T01:29:52;9.40;99.90
43049;DHT22;28673;44.412;11.918;2023-12-29T01:32:19;9.40;99.90
43049;DHT22;28673;44.412;11.918;2023-12-29T01:34:44;9.30;99.90
43049;DHT22;28673;44.412;11.918;2023-12-29T01:37:10;9.40;99.90
43049;DHT22;28673;44.412;11.918;2023-12-29T01:39:36;9.40;99.90
43049;DHT22;28673;44.412;11.918;2023-12-29T01:42:02;9.40;99.90
43049;DHT22;28673;44.412;11.918;2023-12-29T01:44:28;9.40;99.90
43049;DHT22;28673;44.412;11.918;2023-12-29T01:46:59;9.40;99.90
43049;DHT22;28673;44.412;11.918;2023-12-29T01:49:26;9.30;99.90
43049;DHT22;28673;44.412;11.918;2023-12-29T01:51:58;9.40;99.90
43049;DHT22;28673;44.412;11.918;2023-12-29T01:54:34;9.40;99.90
43049;DHT22;28673;44.412;11.918;2023-12-29T01:57:02;9.40;99.90
43049;DHT22;28673;44.412;11.918;2023-12-29T01:59:28;9.40;99.90
43049;DHT22;28673;44.412;11.918;2023-12-29T02:01:57;9.40;99.90
43049;DHT22;28673;44.412;11.918;2023-12-29T02:04:24;9.40;99.90
43049;DHT22;28673;44.412;11.918;2023-12-29T02:06:51;9.40;99.90
43049;DHT22;28673;44.412;11.918;2023-12-29T02:09:17;9.40;99.90
43049;DHT22;28673;44.412;11.918;2023-12-29T02:11:47;9.40;99.90
43049;DHT22;28673;44.412;11.918;2023-12-29T02:14:15;9.40;99.90
43049;DHT22;28673;44.412;11.918;2023-12-29T02:19:40;9.40;99.90
43049;DHT22;28673;44.412;11.918;2023-12-29T02:22:07;9.50;99.90
43049;DHT22;28673;44.412;11.918;2023-12-29T02:24:34;9.50;99.90
43049;DHT22;28673;44.412;11.918;2023-12-29T02:27:12;9.50;99.90
43049;DHT22;28673;44.412;11.918;2023-12-29T02:29:44;9.40;99.90
43049;DHT22;28673;44.412;11.918;2023-12-29T02:32:16;9.40;99.90
43049;DHT22;28673;44.412;11.918;2023-12-29T02:34:44;9.40;99.90
43049;DHT22;28673;44.412;11.918;2023-12-29T02:37:12;9.50;99.90
43049;DHT22;28673;44.412;11.918;2023-12-29T02:39:38;9.40;99.90
43049;DHT22;28673;44.412;11.918;2023-12-29T02:42:04;9.50;99.90
43049;DHT22;28673;44.412;11.918;2023-12-29T02:44:30;9.50;99.90
43049;DHT22;28673;44.412;11.918;2023-12-29T02:46:56;9.50;99.90
43049;DHT22;28673;44.412;11.918;2023-12-29T02:49:22;9.50;99.90
43049;DHT22;28673;44.412;11.918;2023-12-29T02:51:47;9.50;99.90
43049;DHT22;28673;44.412;11.918;2023-12-29T02:54:15;9.50;99.90
43049;DHT22;28673;44.412;11.918;2023-12-29T02:56:41;9.50;99.90
43049;DHT22;28673;44.412;11.918;2023-12-29T02:59:08;9.50;99.90
43049;DHT22;28673;44.412;11.918;2023-12-29T03:01:33;9.50;99.90
43049;DHT22;28673;44.412;11.918;2023-12-29T03:04:00;9.50;99.90
43049;DHT22;28673;44.412;11.918;2023-12-29T03:06:27;9.50;99.90
43049;DHT22;28673;44.412;11.918;2023-12-29T03:08:53;9.50;99.90
43049;DHT22;28673;44.412;11.918;2023-12-29T03:11:19;9.50;99.90
43049;DHT22;28673;44.412;11.918;2023-12-29T03:13:45;9.50;99.90
43049;DHT22;28673;44.412;11.918;2023-12-29T03:16:10;9.50;99.90
43049;DHT22;28673;44.412;11.918;2023-12-29T03:18:36;9.40;99.90
43049;DHT22;28673;44.412;11.918;2023-12-29T03:21:05;9.40;99.90
43049;DHT22;28673;44.412;11.918;2023-12-29T03:23:33;9.40;99.90
43049;DHT22;28673;44.412;11.918;2023-12-29T03:25:59;9.40;99.90
43049;DHT22;28673;44.412;11.918;2023-12-29T03:28:25;9.30;99.90
43049;DHT22;28673;44.412;11.918;2023-12-29T03:30:51;9.30;99.90
43049;DHT22;28673;44.412;11.918;2023-12-29T03:33:17;9.30;99.90
43049;DHT22;28673;44.412;11.918;2023-12-29T03:35:43;9.20;99.90
43049;DHT22;28673;44.412;11.918;2023-12-29T03:38:08;9.20;99.90
43049;DHT22;28673;44.412;11.918;2023-12-29T03:40:34;9.20;99.90
43049;DHT22;28673;44.412;11.918;2023-12-29T03:43:00;9.10;99.90
43049;DHT22;28673;44.412;11.918;2023-12-29T03:45:26;9.10;99.90
43049;DHT22;28673;44.412;11.918;2023-12-29T03:47:51;9.10;99.90
43049;DHT22;28673;44.412;11.918;2023-12-29T03:50:17;9.00;99.90
43049;DHT22;28673;44.412;11.918;2023-12-29T03:52:43;9.00;99.90
43049;DHT22;28673;44.412;11.918;2023-12-29T03:55:09;9.00;99.90
43049;DHT22;28673;44.412;11.918;2023-12-29T03:57:36;9.00;99.90
43049;DHT22;28673;44.412;11.918;2023-12-29T04:00:03;9.00;99.90
43049;DHT22;28673;44.412;11.918;2023-12-29T04:02:38;9.00;99.90
43049;DHT22;28673;44.412;11.918;2023-12-29T04:05:05;8.90;99.90
43049;DHT22;28673;44.412;11.918;2023-12-29T04:07:32;8.90;99.90
43049;DHT22;28673;44.412;11.918;2023-12-29T04:09:58;8.90;99.90
43049;DHT22;28673;44.412;11.918;2023-12-29T04:12:24;8.90;99.90
43049;DHT22;28673;44.412;11.918;2023-12-29T04:14:51;8.90;99.90
43049;DHT22;28673;44.412;11.918;2023-12-29T04:17:16;8.90;99.90
43049;DHT22;28673;44.412;11.918;2023-12-29T04:19:42;8.90;99.90
43049;DHT22;28673;44.412;11.918;2023-12-29T04:22:08;8.90;99.90
43049;DHT22;28673;44.412;11.918;2023-12-29T04:24:34;8.90;99.90
43049;DHT22;28673;44.412;11.918;2023-12-29T04:27:03;8.80;99.90
43049;DHT22;28673;44.412;11.918;2023-12-29T04:29:29;8.80;99.90
43049;DHT22;28673;44.412;11.918;2023-12-29T04:31:55;8.80;99.90
43049;DHT22;28673;44.412;11.918;2023-12-29T04:34:20;8.80;99.90
43049;DHT22;28673;44.412;11.918;2023-12-29T04:36:47;8.80;99.90
43049;DHT22;28673;44.412;11.918;2023-12-29T04:39:15;8.70;99.90
43049;DHT22;28673;44.412;11.918;2023-12-29T04:41:44;8.70;99.90
43049;DHT22;28673;44.412;11.918;2023-12-29T04:44:10;8.60;99.90
43049;DHT22;28673;44.412;11.918;2023-12-29T04:46:36;8.60;99.90
43049;DHT22;28673;44.412;11.918;2023-12-29T04:49:01;8.50;99.90
43049;DHT22;28673;44.412;11.918;2023-12-29T04:51:28;8.50;99.90
43049;DHT22;28673;44.412;11.918;2023-12-29T04:53:53;8.40;99.90
43049;DHT22;28673;44.412;11.918;2023-12-29T04:56:19;8.40;99.90
43049;DHT22;28673;44.412;11.918;2023-12-29T04:58:45;8.40;99.90
43049;DHT22;28673;44.412;11.918;2023-12-29T05:01:11;8.30;99.90
43049;DHT22;28673;44.412;11.918;2023-12-29T05:03:37;8.30;99.90
43049;DHT22;28673;44.412;11.918;2023-12-29T05:06:03;8.20;99.90
43049;DHT22;28673;44.412;11.918;2023-12-29T05:08:29;8.20;99.90
43049;DHT22;28673;44.412;11.918;2023-12-29T05:10:54;8.20;99.90
43049;DHT22;28673;44.412;11.918;2023-12-29T05:13:21;8.10;99.90
43049;DHT22;28673;44.412;11.918;2023-12-29T05:15:46;8.10;99.90
43049;DHT22;28673;44.412;11.918;2023-12-29T05:18:12;8.10;99.90
43049;DHT22;28673;44.412;11.918;2023-12-29T05:20:38;8.00;99.90
43049;DHT22;28673;44.412;11.918;2023-12-29T05:23:04;8.00;99.90
43049;DHT22;28673;44.412;11.918;2023-12-29T05:25:29;7.90;99.90
43049;DHT22;28673;44.412;11.918;2023-12-29T05:27:55;7.90;99.90
43049;DHT22;28673;44.412;11.918;2023-12-29T05:30:21;7.80;99.90
43049;DHT22;28673;44.412;11.918;2023-12-29T05:32:47;7.80;99.90
43049;DHT22;28673;44.412;11.918;2023-12-29T05:35:13;7.70;99.90
43049;DHT22;28673;44.412;11.918;2023-12-29T05:37:38;7.70;99.90
43049;DHT22;28673;44.412;11.918;2023-12-29T05:40:04;7.60;99.90
43049;DHT22;28673;44.412;11.918;2023-12-29T05:42:30;7.60;99.90
43049;DHT22;28673;44.412;11.918;2023-12-29T05:44:56;7.50;99.90
43049;DHT22;28673;44.412;11.918;2023-12-29T05:47:22;7.50;99.90
43049;DHT22;28673;44.412;11.918;2023-12-29T05:49:48;7.40;99.90
43049;DHT22;28673;44.412;11.918;2023-12-29T05:52:13;7.40;99.90
43049;DHT22;28673;44.412;11.918;2023-12-29T05:54:39;7.40;99.90
43049;DHT22;28673;44.412;11.918;2023-12-29T05:57:05;7.30;99.90
43049;DHT22;28673;44.412;11.918;2023-12-29T05:59:31;7.20;99.90
43049;DHT22;28673;44.412;11.918;2023-12-29T06:01:56;7.20;99.90
43049;DHT22;28673;44.412;11.918;2023-12-29T06:04:22;7.20;99.90
43049;DHT22;28673;44.412;11.918;2023-12-29T06:06:48;7.20;99.90
43049;DHT22;28673;44.412;11.918;2023-12-29T06:09:14;7.10;99.90
43049;DHT22;28673;44.412;11.918;2023-12-29T06:11:40;7.10;99.90
43049;DHT22;28673;44.412;11.918;2023-12-29T06:14:06;7.00;99.90
43049;DHT22;28673;44.412;11.918;2023-12-29T06:16:32;7.00;99.90
43049;DHT22;28673;44.412;11.918;2023-12-29T06:18:58;7.00;99.90
43049;DHT22;28673;44.412;11.918;2023-12-29T06:21:23;7.00;99.90
43049;DHT22;28673;44.412;11.918;2023-12-29T06:23:49;6.90;99.90
43049;DHT22;28673;44.412;11.918;2023-12-29T06:26:19;6.90;99.90
43049;DHT22;28673;44.412;11.918;2023-12-29T06:28:46;6.90;99.90
43049;DHT22;28673;44.412;11.918;2023-12-29T06:31:12;6.80;99.90
43049;DHT22;28673;44.412;11.918;2023-12-29T06:33:42;6.80;99.90
43049;DHT22;28673;44.412;11.918;2023-12-29T06:36:08;6.80;99.90
43049;DHT22;28673;44.412;11.918;2023-12-29T06:38:35;6.70;99.90
43049;DHT22;28673;44.412;11.918;2023-12-29T06:41:04;6.70;99.90
43049;DHT22;28673;44.412;11.918;2023-12-29T06:43:30;6.70;99.90
43049;DHT22;28673;44.412;11.918;2023-12-29T06:45:56;6.60;99.90
43049;DHT22;28673;44.412;11.918;2023-12-29T06:48:22;6.60;99.90
43049;DHT22;28673;44.412;11.918;2023-12-29T06:50:48;6.60;99.90
43049;DHT22;28673;44.412;11.918;2023-12-29T06:53:14;6.50;99.90
43049;DHT22;28673;44.412;11.918;2023-12-29T06:55:40;6.50;99.90
43049;DHT22;28673;44.412;11.918;2023-12-29T06:58:06;6.50;99.90
43049;DHT22;28673;44.412;11.918;2023-12-29T07:00:31;6.40;99.90
43049;DHT22;28673;44.412;11.918;2023-12-29T07:02:57;6.40;99.90
43049;DHT22;28673;44.412;11.918;2023-12-29T07:05:23;6.40;99.90
43049;DHT22;28673;44.412;11.918;2023-12-29T07:07:49;6.40;99.90
43049;DHT22;28673;44.412;11.918;2023-12-29T07:10:15;6.40;99.90
43049;DHT22;28673;44.412;11.918;2023-12-29T07:12:41;6.30;99.90
43049;DHT22;28673;44.412;11.918;2023-12-29T07:15:07;6.30;99.90
43049;DHT22;28673;44.412;11.918;2023-12-29T07:17:33;6.30;99.90
43049;DHT22;28673;44.412;11.918;2023-12-29T07:19:58;6.30;99.90
43049;DHT22;28673;44.412;11.918;2023-12-29T07:22:24;6.30;99.90
43049;DHT22;28673;44.412;11.918;2023-12-29T07:24:50;6.30;99.90
43049;DHT22;28673;44.412;11.918;2023-12-29T07:27:16;6.30;99.90
43049;DHT22;28673;44.412;11.918;2023-12-29T07:29:41;6.30;99.90
43049;DHT22;28673;44.412;11.918;2023-12-29T07:32:07;6.30;99.90
43049;DHT22;28673;44.412;11.918;2023-12-29T07:34:34;6.30;99.90
43049;DHT22;28673;44.412;11.918;2023-12-29T07:37:00;6.30;99.90
43049;DHT22;28673;44.412;11.918;2023-12-29T07:39:26;6.30;99.90
43049;DHT22;28673;44.412;11.918;2023-12-29T07:41:51;6.30;99.90
43049;DHT22;28673;44.412;11.918;2023-12-29T07:44:18;6.30;99.90
43049;DHT22;28673;44.412;11.918;2023-12-29T07:46:44;6.20;99.90
43049;DHT22;28673;44.412;11.918;2023-12-29T07:49:10;6.30;99.90
43049;DHT22;28673;44.412;11.918;2023-12-29T07:51:46;6.30;99.90
43049;DHT22;28673;44.412;11.918;2023-12-29T07:54:11;6.30;99.90
43049;DHT22;28673;44.412;11.918;2023-12-29T07:56:37;6.30;99.90
43049;DHT22;28673;44.412;11.918;2023-12-29T07:59:04;6.30;99.90
43049;DHT22;28673;44.412;11.918;2023-12-29T08:01:30;6.30;99.90
43049;DHT22;28673;44.412;11.918;2023-12-29T08:03:55;6.30;99.90
43049;DHT22;28673;44.412;11.918;2023-12-29T08:06:22;6.30;99.90
43049;DHT22;28673;44.412;11.918;2023-12-29T08:08:48;6.40;99.90
43049;DHT22;28673;44.412;11.918;2023-12-29T08:11:14;6.40;99.90
43049;DHT22;28673;44.412;11.918;2023-12-29T08:13:48;6.40;99.90
43049;DHT22;28673;44.412;11.918;2023-12-29T08:16:15;6.40;99.90
43049;DHT22;28673;44.412;11.918;2023-12-29T08:18:43;6.40;99.90
43049;DHT22;28673;44.412;11.918;2023-12-29T08:21:16;6.40;99.90
43049;DHT22;28673;44.412;11.918;2023-12-29T08:23:43;6.50;99.90
43049;DHT22;28673;44.412;11.918;2023-12-29T08:26:09;6.50;99.90
43049;DHT22;28673;44.412;11.918;2023-12-29T08:28:35;6.50;99.90
43049;DHT22;28673;44.412;11.918;2023-12-29T08:31:01;6.60;99.90
43049;DHT22;28673;44.412;11.918;2023-12-29T08:33:27;6.60;99.90
43049;DHT22;28673;44.412;11.918;2023-12-29T08:35:52;6.70;99.90
43049;DHT22;28673;44.412;11.918;2023-12-29T08:38:18;6.80;99.90
43049;DHT22;28673;44.412;11.918;2023-12-29T08:40:44;6.90;99.90
43049;DHT22;28673;44.412;11.918;2023-12-29T08:43:10;6.90;99.90
43049;DHT22;28673;44.412;11.918;2023-12-29T08:45:36;7.00;99.90
43049;DHT22;28673;44.412;11.918;2023-12-29T08:48:02;7.10;99.90
43049;DHT22;28673;44.412;11.918;2023-12-29T08:50:28;7.20;99.90
43049;DHT22;28673;44.412;11.918;2023-12-29T08:52:54;7.30;99.90
43049;DHT22;28673;44.412;11.918;2023-12-29T08:55:20;7.40;99.90
43049;DHT22;28673;44.412;11.918;2023-12-29T08:57:46;7.50;99.90
43049;DHT22;28673;44.412;11.918;2023-12-29T09:00:12;7.60;99.90
43049;DHT22;28673;44.412;11.918;2023-12-29T09:02:38;7.70;99.90
43049;DHT22;28673;44.412;11.918;2023-12-29T09:05:04;7.80;99.90
43049;DHT22;28673;44.412;11.918;2023-12-29T09:07:30;7.90;99.90
43049;DHT22;28673;44.412;11.918;2023-12-29T09:09:55;8.10;99.90
43049;DHT22;28673;44.412;11.918;2023-12-29T09:12:21;8.20;99.90
43049;DHT22;28673;44.412;11.918;2023-12-29T09:14:47;8.30;99.90
43049;DHT22;28673;44.412;11.918;2023-12-29T09:17:13;8.60;99.90
43049;DHT22;28673;44.412;11.918;2023-12-29T09:19:38;8.70;99.90
43049;DHT22;28673;44.412;11.918;2023-12-29T09:22:04;8.90;99.90
43049;DHT22;28673;44.412;11.918;2023-12-29T09:24:30;9.10;99.90
43049;DHT22;28673;44.412;11.918;2023-12-29T09:26:56;9.30;99.90
43049;DHT22;28673;44.412;11.918;2023-12-29T09:29:22;9.60;99.90
43049;DHT22;28673;44.412;11.918;2023-12-29T09:31:48;9.80;99.90
43049;DHT22;28673;44.412;11.918;2023-12-29T09:34:13;9.90;99.90
43049;DHT22;28673;44.412;11.918;2023-12-29T09:36:39;10.10;99.90
43049;DHT22;28673;44.412;11.918;2023-12-29T09:39:05;10.30;99.90
43049;DHT22;28673;44.412;11.918;2023-12-29T09:41:31;10.50;99.90
43049;DHT22;28673;44.412;11.918;2023-12-29T09:44:01;10.70;99.90
43049;DHT22;28673;44.412;11.918;2023-12-29T09:46:31;10.80;99.90
43049;DHT22;28673;44.412;11.918;2023-12-29T09:48:58;11.00;99.90
43049;DHT22;28673;44.412;11.918;2023-12-29T09:51:25;11.20;99.90
43049;DHT22;28673;44.412;11.918;2023-12-29T09:53:52;11.40;99.90
43049;DHT22;28673;44.412;11.918;2023-12-29T09:56:19;11.50;99.90
43049;DHT22;28673;44.412;11.918;2023-12-29T09:58:47;11.60;99.90
43049;DHT22;28673;44.412;11.918;2023-12-29T10:01:14;11.80;99.90
43049;DHT22;28673;44.412;11.918;2023-12-29T10:03:42;11.90;99.90
43049;DHT22;28673;44.412;11.918;2023-12-29T10:06:09;12.00;99.90
43049;DHT22;28673;44.412;11.918;2023-12-29T10:08:45;12.10;99.90
43049;DHT22;28673;44.412;11.918;2023-12-29T10:11:12;12.20;99.90
43049;DHT22;28673;44.412;11.918;2023-12-29T10:13:39;12.30;99.90
43049;DHT22;28673;44.412;11.918;2023-12-29T10:16:27;12.30;99.90
43049;DHT22;28673;44.412;11.918;2023-12-29T10:24:22;12.60;99.90
43049;DHT22;28673;44.412;11.918;2023-12-29T10:26:49;12.60;99.90
43049;DHT22;28673;44.412;11.918;2023-12-29T10:29:16;12.60;99.90
43049;DHT22;28673;44.412;11.918;2023-12-29T10:31:44;12.50;99.90
43049;DHT22;28673;44.412;11.918;2023-12-29T10:34:25;12.50;99.90
43049;DHT22;28673;44.412;11.918;2023-12-29T10:36:58;12.50;99.90
43049;DHT22;28673;44.412;11.918;2023-12-29T10:39:24;12.50;99.90
43049;DHT22;28673;44.412;11.918;2023-12-29T10:42:02;12.50;99.90
43049;DHT22;28673;44.412;11.918;2023-12-29T10:44:28;12.50;99.90
43049;DHT22;28673;44.412;11.918;2023-12-29T10:46:53;12.50;99.90
43049;DHT22;28673;44.412;11.918;2023-12-29T10:49:19;12.50;99.90
43049;DHT22;28673;44.412;11.918;2023-12-29T10:51:45;12.60;99.90
43049;DHT22;28673;44.412;11.918;2023-12-29T10:54:19;12.60;99.90
43049;DHT22;28673;44.412;11.918;2023-12-29T10:57:03;12.70;99.90
43049;DHT22;28673;44.412;11.918;2023-12-29T10:59:29;12.70;99.90
43049;DHT22;28673;44.412;11.918;2023-12-29T11:01:56;12.80;99.90
43049;DHT22;28673;44.412;11.918;2023-12-29T11:04:24;12.90;99.90
43049;DHT22;28673;44.412;11.918;2023-12-29T11:06:50;12.90;99.90
43049;DHT22;28673;44.412;11.918;2023-12-29T11:09:29;13.00;99.90
43049;DHT22;28673;44.412;11.918;2023-12-29T11:12:03;13.10;99.90
43049;DHT22;28673;44.412;11.918;2023-12-29T11:14:29;13.20;99.90
43049;DHT22;28673;44.412;11.918;2023-12-29T11:16:56;13.30;99.90
43049;DHT22;28673;44.412;11.918;2023-12-29T11:19:23;13.40;99.90
43049;DHT22;28673;44.412;11.918;2023-12-29T11:21:51;13.40;99.90
43049;DHT22;28673;44.412;11.918;2023-12-29T11:24:21;13.50;99.90
43049;DHT22;28673;44.412;11.918;2023-12-29T11:26:49;13.60;99.90
43049;DHT22;28673;44.412;11.918;2023-12-29T11:29:18;13.70;99.90
43049;DHT22;28673;44.412;11.918;2023-12-29T11:31:47;13.70;99.90
43049;DHT22;28673;44.412;11.918;2023-12-29T11:34:23;13.70;99.90
43049;DHT22;28673;44.412;11.918;2023-12-29T11:36:57;13.70;99.90
43049;DHT22;28673;44.412;11.918;2023-12-29T11:39:50;13.80;99.90
43049;DHT22;28673;44.412;11.918;2023-12-29T11:42:21;13.80;99.90
43049;DHT22;28673;44.412;11.918;2023-12-29T11:44:48;13.80;99.90
43049;DHT22;28673;44.412;11.918;2023-12-29T11:47:36;13.80;99.90
43049;DHT22;28673;44.412;11.918;2023-12-29T11:50:03;13.80;99.90
43049;DHT22;28673;44.412;11.918;2023-12-29T11:52:37;13.80;99.90
43049;DHT22;28673;44.412;11.918;2023-12-29T11:57:33;13.80;99.90
43049;DHT22;28673;44.412;11.918;2023-12-29T12:00:01;13.80;99.90
43049;DHT22;28673;44.412;11.918;2023-12-29T12:02:37;13.80;99.90
43049;DHT22;28673;44.412;11.918;2023-12-29T12:05:04;13.80;99.90
43049;DHT22;28673;44.412;11.918;2023-12-29T12:12:49;13.80;99.90
43049;DHT22;28673;44.412;11.918;2023-12-29T12:17:56;14.00;99.90
43049;DHT22;28673;44.412;11.918;2023-12-29T12:20:22;14.00;99.90
43049;DHT22;28673;44.412;11.918;2023-12-29T12:22:58;14.10;99.90
43049;DHT22;28673;44.412;11.918;2023-12-29T12:25:27;14.10;99.90
43049;DHT22;28673;44.412;11.918;2023-12-29T12:27:54;14.20;99.90
43049;DHT22;28673;44.412;11.918;2023-12-29T12:30:20;14.20;99.90
43049;DHT22;28673;44.412;11.918;2023-12-29T12:32:47;14.20;99.90
43049;DHT22;28673;44.412;11.918;2023-12-29T12:35:16;14.20;99.90
43049;DHT22;28673;44.412;11.918;2023-12-29T12:37:42;14.30;99.90
43049;DHT22;28673;44.412;11.918;2023-12-29T12:40:08;14.40;99.90
43049;DHT22;28673;44.412;11.918;2023-12-29T12:42:38;14.40;99.90
43049;DHT22;28673;44.412;11.918;2023-12-29T12:45:17;14.50;99.90
43049;DHT22;28673;44.412;11.918;2023-12-29T12:47:51;14.60;99.90
43049;DHT22;28673;44.412;11.918;2023-12-29T12:50:18;14.60;99.90
43049;DHT22;28673;44.412;11.918;2023-12-29T12:52:44;14.70;99.90
43049;DHT22;28673;44.412;11.918;2023-12-29T12:55:11;14.80;99.90
43049;DHT22;28673;44.412;11.918;2023-12-29T12:57:38;14.80;99.90
43049;DHT22;28673;44.412;11.918;2023-12-29T13:00:05;14.80;99.90
43049;DHT22;28673;44.412;11.918;2023-12-29T13:02:32;14.70;99.90
43049;DHT22;28673;44.412;11.918;2023-12-29T13:05:00;14.70;99.90
43049;DHT22;28673;44.412;11.918;2023-12-29T13:07:31;14.70;99.90
43049;DHT22;28673;44.412;11.918;2023-12-29T13:09:57;14.60;99.90
43049;DHT22;28673;44.412;11.918;2023-12-29T13:12:23;14.60;99.90
43049;DHT22;28673;44.412;11.918;2023-12-29T13:14:49;14.50;99.90
43049;DHT22;28673;44.412;11.918;2023-12-29T13:17:17;14.50;99.90
43049;DHT22;28673;44.412;11.918;2023-12-29T13:19:43;14.50;99.90
43049;DHT22;28673;44.412;11.918;2023-12-29T13:22:12;14.40;99.90
43049;DHT22;28673;44.412;11.918;2023-12-29T13:24:44;14.30;99.90
43049;DHT22;28673;44.412;11.918;2023-12-29T13:27:11;14.40;99.90
43049;DHT22;28673;44.412;11.918;2023-12-29T13:29:40;14.30;99.90
43049;DHT22;28673;44.412;11.918;2023-12-29T13:32:22;14.20;99.90
43049;DHT22;28673;44.412;11.918;2023-12-29T13:35:11;14.30;99.90
43049;DHT22;28673;44.412;11.918;2023-12-29T13:37:53;14.30;99.90
43049;DHT22;28673;44.412;11.918;2023-12-29T13:40:26;14.20;99.90
43049;DHT22;28673;44.412;11.918;2023-12-29T13:42:59;14.20;99.90
43049;DHT22;28673;44.412;11.918;2023-12-29T13:45:27;14.20;99.90
43049;DHT22;28673;44.412;11.918;2023-12-29T13:47:54;14.20;99.90
43049;DHT22;28673;44.412;11.918;2023-12-29T13:50:21;14.20;99.90
43049;DHT22;28673;44.412;11.918;2023-12-29T13:52:47;14.10;99.90
43049;DHT22;28673;44.412;11.918;2023-12-29T13:55:24;14.10;99.90
43049;DHT22;28673;44.412;11.918;2023-12-29T13:57:51;14.10;99.90
43049;DHT22;28673;44.412;11.918;2023-12-29T14:00:21;14.10;99.90
43049;DHT22;28673;44.412;11.918;2023-12-29T14:08:40;13.90;99.90
43049;DHT22;28673;44.412;11.918;2023-12-29T14:11:11;13.80;99.90
43049;DHT22;28673;44.412;11.918;2023-12-29T14:13:46;13.80;99.90
43049;DHT22;28673;44.412;11.918;2023-12-29T14:16:15;13.70;99.90
43049;DHT22;28673;44.412;11.918;2023-12-29T14:21:40;13.60;99.90
43049;DHT22;28673;44.412;11.918;2023-12-29T14:24:15;13.50;99.90
43049;DHT22;28673;44.412;11.918;2023-12-29T14:26:55;13.50;99.90
43049;DHT22;28673;44.412;11.918;2023-12-29T14:29:25;13.40;99.90
43049;DHT22;28673;44.412;11.918;2023-12-29T14:31:51;13.40;99.90
43049;DHT22;28673;44.412;11.918;2023-12-29T14:34:17;13.40;99.90
43049;DHT22;28673;44.412;11.918;2023-12-29T14:36:43;13.40;99.90
43049;DHT22;28673;44.412;11.918;2023-12-29T14:39:09;13.30;99.90
43049;DHT22;28673;44.412;11.918;2023-12-29T14:41:39;13.30;99.90
43049;DHT22;28673;44.412;11.918;2023-12-29T14:44:05;13.30;99.90
43049;DHT22;28673;44.412;11.918;2023-12-29T14:46:31;13.30;99.90
43049;DHT22;28673;44.412;11.918;2023-12-29T14:49:00;13.20;99.90
43049;DHT22;28673;44.412;11.918;2023-12-29T14:51:26;13.20;99.90
43049;DHT22;28673;44.412;11.918;2023-12-29T14:53:52;13.20;99.90
43049;DHT22;28673;44.412;11.918;2023-12-29T14:56:18;13.20;99.90
43049;DHT22;28673;44.412;11.918;2023-12-29T14:58:44;13.20;99.90
43049;DHT22;28673;44.412;11.918;2023-12-29T15:01:10;13.10;99.90
43049;DHT22;28673;44.412;11.918;2023-12-29T15:03:36;13.10;99.90
43049;DHT22;28673;44.412;11.918;2023-12-29T15:06:03;13.00;99.90
43049;DHT22;28673;44.412;11.918;2023-12-29T15:08:29;13.00;99.90
43049;DHT22;28673;44.412;11.918;2023-12-29T15:11:01;12.90;99.90
43049;DHT22;28673;44.412;11.918;2023-12-29T15:13:27;12.90;99.90
43049;DHT22;28673;44.412;11.918;2023-12-29T15:15:54;12.90;99.90
43049;DHT22;28673;44.412;11.918;2023-12-29T15:18:20;12.80;99.90
43049;DHT22;28673;44.412;11.918;2023-12-29T15:20:46;12.80;99.90
43049;DHT22;28673;44.412;11.918;2023-12-29T15:23:15;12.80;99.90
43049;DHT22;28673;44.412;11.918;2023-12-29T15:25:41;12.70;99.90
43049;DHT22;28673;44.412;11.918;2023-12-29T15:28:08;12.70;99.90
43049;DHT22;28673;44.412;11.918;2023-12-29T15:30:33;12.60;99.90
43049;DHT22;28673;44.412;11.918;2023-12-29T15:32:59;12.60;99.90
43049;DHT22;28673;44.412;11.918;2023-12-29T15:35:25;12.60;99.90
43049;DHT22;28673;44.412;11.918;2023-12-29T15:37:51;12.60;99.90
43049;DHT22;28673;44.412;11.918;2023-12-29T15:40:19;12.50;99.90
43049;DHT22;28673;44.412;11.918;2023-12-29T15:42:45;12.50;99.90
43049;DHT22;28673;44.412;11.918;2023-12-29T15:45:11;12.50;99.90
43049;DHT22;28673;44.412;11.918;2023-12-29T15:47:37;12.40;99.90
43049;DHT22;28673;44.412;11.918;2023-12-29T15:50:03;12.40;99.90
43049;DHT22;28673;44.412;11.918;2023-12-29T15:52:29;12.40;99.90
43049;DHT22;28673;44.412;11.918;2023-12-29T15:54:54;12.30;99.90